Time;durP1;ratioP1;P1;durP2;ratioP2;P2;SDS_P1;SDS_P2;PMS_P1;PMS_P2;Temp;Humidity;BMP_temperature;BMP_pressure;BME280_temperature;BME280_humidity;BME280_pressure;Samples;Min_cycle;Max_cycle;Signal;HPM_P1;HPM_P2
2023/10/25 00:01:24;;;;;;;3.57;2.40;;;11.40;99.90;;;;;;4988249;28;20501;-66
2023/10/25 00:03:50;;;;;;;2.27;1.93;;;11.40;99.90;;;;;;4988952;28;20437;-65
2023/10/25 00:06:15;;;;;;;2.20;2.00;;;11.30;99.90;;;;;;4989328;28;20331;-63
2023/10/25 00:08:41;;;;;;;3.53;2.10;;;11.30;99.90;;;;;;4989831;28;20183;-65
2023/10/25 00:11:08;;;;;;;5.30;2.40;;;11.30;99.90;;;;;;4990101;28;20728;-63
2023/10/25 00:13:35;;;;;;;3.13;2.20;;;11.20;99.90;;;;;;4987132;28;20191;-64
2023/10/25 00:16:02;;;;;;;3.90;2.20;;;11.20;99.90;;;;;;4990760;28;20443;-65
2023/10/25 00:18:28;;;;;;;2.43;1.73;;;11.10;99.90;;;;;;4991383;28;20442;-63
2023/10/25 00:20:54;;;;;;;2.37;1.87;;;11.00;99.90;;;;;;4991825;28;20478;-65
2023/10/25 00:23:20;;;;;;;2.50;2.20;;;11.00;99.90;;;;;;4988311;28;21117;-65
2023/10/25 00:25:50;;;;;;;4.07;2.00;;;11.00;99.90;;;;;;4989513;28;20576;-63
2023/10/25 00:28:16;;;;;;;3.17;2.30;;;11.00;99.90;;;;;;4988471;28;20825;-65
2023/10/25 00:30:43;;;;;;;5.13;2.10;;;10.90;99.90;;;;;;4989320;28;20420;-66
2023/10/25 00:33:10;;;;;;;3.60;1.90;;;10.90;99.90;;;;;;4987880;28;20422;-65
2023/10/25 00:35:35;;;;;;;2.20;1.97;;;10.90;99.90;;;;;;4988390;28;20433;-68
2023/10/25 00:38:01;;;;;;;2.77;2.00;;;10.90;99.90;;;;;;4989090;28;20438;-67
2023/10/25 00:40:27;;;;;;;2.00;1.80;;;10.90;99.90;;;;;;4988216;28;20192;-65
2023/10/25 00:42:57;;;;;;;6.03;2.30;;;10.90;99.90;;;;;;4979334;28;20202;-66
2023/10/25 00:45:22;;;;;;;7.80;2.47;;;10.90;99.90;;;;;;4988252;28;20215;-64
2023/10/25 00:47:48;;;;;;;2.73;2.10;;;10.90;99.90;;;;;;4988664;28;21027;-63
2023/10/25 00:50:17;;;;;;;3.17;1.77;;;10.80;99.90;;;;;;4989774;28;20208;-64
2023/10/25 00:52:44;;;;;;;2.60;2.13;;;10.70;99.90;;;;;;4988154;28;20179;-64
2023/10/25 00:55:10;;;;;;;4.10;2.10;;;10.60;99.90;;;;;;4988198;28;20541;-64
2023/10/25 00:57:36;;;;;;;6.10;2.30;;;10.60;99.90;;;;;;4988561;28;20427;-62
2023/10/25 01:00:02;;;;;;;3.03;2.20;;;10.60;99.90;;;;;;4989120;28;20484;-66
2023/10/25 01:02:28;;;;;;;2.17;1.60;;;10.60;99.90;;;;;;4988554;28;20430;-65
2023/10/25 01:04:54;;;;;;;3.57;1.80;;;10.50;99.90;;;;;;4988538;28;21452;-67
2023/10/25 01:07:20;;;;;;;2.20;2.00;;;10.60;99.90;;;;;;4989112;28;20472;-64
2023/10/25 01:09:47;;;;;;;2.87;1.80;;;10.50;99.90;;;;;;4988569;28;20222;-65
2023/10/25 01:12:12;;;;;;;2.90;1.83;;;10.50;99.90;;;;;;4988384;28;20209;-67
2023/10/25 01:14:39;;;;;;;3.70;2.37;;;10.50;99.90;;;;;;4985621;28;20438;-66
2023/10/25 01:17:05;;;;;;;7.53;2.20;;;10.40;99.90;;;;;;4988102;28;20188;-66
2023/10/25 01:19:31;;;;;;;2.53;1.90;;;10.50;99.90;;;;;;4988361;28;20431;-66
2023/10/25 01:21:57;;;;;;;2.20;2.00;;;10.50;99.90;;;;;;4988456;28;20451;-67
2023/10/25 01:24:23;;;;;;;6.27;2.53;;;10.60;99.90;;;;;;4988641;28;20191;-64
2023/10/25 01:26:48;;;;;;;3.47;2.33;;;10.60;99.90;;;;;;4991042;28;20215;-65
2023/10/25 01:29:14;;;;;;;3.23;2.53;;;10.60;99.90;;;;;;4993560;28;22061;-64
2023/10/25 01:31:40;;;;;;;3.53;1.93;;;10.60;99.90;;;;;;4991369;28;20183;-64
2023/10/25 01:34:05;;;;;;;2.73;1.90;;;10.50;99.90;;;;;;4991762;28;20196;-66
2023/10/25 01:36:31;;;;;;;3.20;2.57;;;10.50;99.90;;;;;;4991952;28;20637;-65
2023/10/25 01:38:57;;;;;;;1.83;1.73;;;10.50;99.90;;;;;;4992122;28;20192;-66
2023/10/25 01:41:22;;;;;;;2.43;2.07;;;10.50;99.90;;;;;;4993977;28;20182;-64
2023/10/25 01:43:48;;;;;;;2.10;1.90;;;10.40;99.90;;;;;;4991975;28;20712;-66
2023/10/25 01:46:14;;;;;;;4.53;2.67;;;10.40;99.90;;;;;;4993982;28;20229;-67
2023/10/25 01:48:42;;;;;;;3.60;2.63;;;10.30;99.90;;;;;;4991481;28;20284;-67
2023/10/25 01:51:09;;;;;;;3.37;2.43;;;10.30;99.90;;;;;;4992424;28;20775;-66
2023/10/25 01:53:35;;;;;;;3.07;2.47;;;10.30;99.90;;;;;;4990304;28;20430;-66
2023/10/25 01:56:01;;;;;;;4.77;2.00;;;10.30;99.90;;;;;;4991276;28;20432;-70
2023/10/25 01:58:27;;;;;;;2.83;2.53;;;10.30;99.90;;;;;;4992836;28;20481;-68
2023/10/25 02:00:53;;;;;;;2.30;2.10;;;10.30;99.90;;;;;;4984119;28;20566;-65
2023/10/25 02:03:18;;;;;;;3.57;2.07;;;10.30;99.90;;;;;;4989659;28;20707;-68
2023/10/25 02:05:44;;;;;;;2.93;2.13;;;10.30;99.90;;;;;;4990027;28;20212;-67
2023/10/25 02:08:10;;;;;;;2.27;1.87;;;10.30;99.90;;;;;;4988822;28;20302;-65
2023/10/25 02:10:35;;;;;;;3.80;2.57;;;10.40;99.90;;;;;;4991493;28;20602;-65
2023/10/25 02:13:01;;;;;;;7.00;2.17;;;10.40;99.90;;;;;;4988361;28;20187;-64
2023/10/25 02:15:28;;;;;;;2.40;2.03;;;10.40;99.90;;;;;;4989017;28;20188;-65
2023/10/25 02:17:53;;;;;;;2.27;1.80;;;10.40;99.90;;;;;;4988000;28;20211;-67
2023/10/25 02:20:19;;;;;;;3.07;2.20;;;10.40;99.90;;;;;;4990590;28;20526;-67
2023/10/25 02:22:45;;;;;;;4.20;2.13;;;10.30;99.90;;;;;;4989409;28;20417;-65
2023/10/25 02:25:11;;;;;;;5.07;2.93;;;10.30;99.90;;;;;;4989341;28;20306;-64
2023/10/25 02:27:36;;;;;;;3.70;1.97;;;10.40;99.90;;;;;;4990064;28;20217;-68
2023/10/25 02:30:03;;;;;;;2.33;1.90;;;10.40;99.90;;;;;;4988513;28;20194;-67
2023/10/25 02:32:30;;;;;;;4.40;3.03;;;10.40;99.90;;;;;;4990032;28;20192;-63
2023/10/25 02:34:55;;;;;;;2.50;2.30;;;10.40;99.90;;;;;;4987303;28;20492;-66
2023/10/25 02:37:21;;;;;;;2.87;2.40;;;10.40;99.90;;;;;;4989154;28;20181;-66
2023/10/25 02:39:47;;;;;;;4.37;2.40;;;10.30;99.90;;;;;;4989223;28;20183;-64
2023/10/25 02:42:13;;;;;;;3.10;2.10;;;10.30;99.90;;;;;;4988379;28;20187;-67
2023/10/25 02:44:39;;;;;;;4.87;2.40;;;10.30;99.90;;;;;;4989047;28;20567;-67
2023/10/25 02:47:06;;;;;;;3.13;2.50;;;10.30;99.90;;;;;;4988521;28;20830;-65
2023/10/25 02:49:33;;;;;;;3.90;2.17;;;10.30;99.90;;;;;;4989719;28;21125;-66
2023/10/25 02:51:59;;;;;;;2.47;2.07;;;10.20;99.90;;;;;;4988124;28;20445;-68
2023/10/25 02:54:25;;;;;;;3.90;2.50;;;10.20;99.90;;;;;;4989382;28;20445;-67
2023/10/25 02:56:50;;;;;;;2.80;2.40;;;10.20;99.90;;;;;;4987890;28;20183;-67
2023/10/25 02:59:16;;;;;;;3.70;2.47;;;10.20;99.90;;;;;;4988837;28;20529;-65
2023/10/25 03:01:42;;;;;;;2.77;2.23;;;10.10;99.90;;;;;;4988979;28;21045;-63
2023/10/25 03:04:08;;;;;;;5.93;2.50;;;10.10;99.90;;;;;;4989055;28;20639;-65
2023/10/25 03:06:33;;;;;;;2.83;2.40;;;10.20;99.90;;;;;;4993692;28;20226;-63
2023/10/25 03:08:59;;;;;;;2.93;2.23;;;10.20;99.90;;;;;;4992628;28;20430;-65
2023/10/25 03:11:25;;;;;;;5.63;2.20;;;10.20;99.90;;;;;;4992351;28;20226;-66
2023/10/25 03:13:51;;;;;;;3.40;2.83;;;10.20;99.90;;;;;;4987958;28;20186;-66
2023/10/25 03:16:16;;;;;;;3.17;2.10;;;10.20;99.90;;;;;;4990559;28;20552;-66
2023/10/25 03:18:42;;;;;;;4.20;2.90;;;10.20;99.90;;;;;;4991159;28;20195;-67
2023/10/25 03:21:08;;;;;;;4.30;2.20;;;10.20;99.90;;;;;;4989298;28;20206;-63
2023/10/25 03:23:33;;;;;;;2.57;2.00;;;10.20;99.90;;;;;;4989966;28;20195;-67
2023/10/25 03:26:04;;;;;;;4.47;3.37;;;10.20;99.90;;;;;;4989192;28;20226;-64
2023/10/25 03:28:30;;;;;;;4.87;2.47;;;10.20;99.90;;;;;;4991173;28;20257;-65
2023/10/25 03:30:56;;;;;;;4.60;2.40;;;10.20;99.90;;;;;;4989968;28;20929;-64
2023/10/25 03:33:22;;;;;;;3.63;2.53;;;10.20;99.90;;;;;;4989698;28;20188;-63
2023/10/25 03:35:52;;;;;;;5.40;2.77;;;10.20;99.90;;;;;;4990260;28;21167;-66
2023/10/25 03:38:18;;;;;;;3.10;2.90;;;10.20;99.90;;;;;;4989374;28;20183;-67
2023/10/25 03:40:44;;;;;;;2.80;2.40;;;10.20;99.90;;;;;;4990402;28;20470;-66
2023/10/25 03:43:10;;;;;;;6.50;2.93;;;10.20;99.90;;;;;;4988667;28;20187;-66
2023/10/25 03:45:35;;;;;;;2.50;2.30;;;10.20;99.90;;;;;;4989376;28;20481;-66
2023/10/25 03:48:01;;;;;;;5.00;2.30;;;10.20;99.90;;;;;;4989678;28;20191;-65
2023/10/25 03:50:27;;;;;;;3.60;3.30;;;10.20;99.90;;;;;;4989290;28;20183;-65
2023/10/25 03:52:52;;;;;;;2.60;2.30;;;10.20;99.90;;;;;;4989669;28;20423;-64
2023/10/25 03:55:18;;;;;;;3.80;2.57;;;10.10;99.90;;;;;;4988859;28;20183;-67
2023/10/25 03:57:44;;;;;;;4.83;2.83;;;10.20;99.90;;;;;;4990159;28;20176;-64
2023/10/25 04:00:11;;;;;;;6.20;2.80;;;10.10;99.90;;;;;;4989363;28;20252;-67
2023/10/25 04:02:36;;;;;;;3.97;3.13;;;10.10;99.90;;;;;;4988978;28;20215;-67
2023/10/25 04:05:02;;;;;;;5.03;2.83;;;10.00;99.90;;;;;;4988415;28;20613;-63
2023/10/25 04:07:28;;;;;;;4.07;2.70;;;10.00;99.90;;;;;;4988915;28;20871;-65
2023/10/25 04:09:53;;;;;;;2.93;2.50;;;10.10;99.90;;;;;;4990239;28;20600;-65
2023/10/25 04:12:19;;;;;;;3.43;2.77;;;10.10;99.90;;;;;;4988620;28;20183;-67
2023/10/25 04:14:45;;;;;;;4.20;3.37;;;10.10;99.90;;;;;;4987584;28;20279;-67
2023/10/25 04:17:11;;;;;;;3.80;2.87;;;10.10;99.90;;;;;;4989233;28;20206;-64
2023/10/25 04:19:38;;;;;;;4.80;2.60;;;10.20;99.90;;;;;;4988686;28;20434;-66
2023/10/25 04:22:04;;;;;;;3.87;3.30;;;10.10;99.90;;;;;;4988804;28;20427;-64
2023/10/25 04:24:30;;;;;;;3.60;2.80;;;10.10;99.90;;;;;;4988633;28;20926;-64
2023/10/25 04:26:56;;;;;;;3.97;2.70;;;10.10;99.90;;;;;;4989517;28;20466;-64
2023/10/25 04:29:21;;;;;;;4.87;3.10;;;10.10;99.90;;;;;;4990327;28;20231;-64
2023/10/25 04:31:47;;;;;;;4.80;3.13;;;10.20;99.90;;;;;;4995438;28;20237;-64
2023/10/25 04:34:13;;;;;;;5.13;3.33;;;10.10;99.90;;;;;;4989384;28;20199;-63
2023/10/25 04:36:38;;;;;;;5.17;2.87;;;10.10;99.90;;;;;;5004932;28;20191;-67
2023/10/25 04:39:04;;;;;;;4.00;3.20;;;10.20;99.90;;;;;;4979338;28;20261;-66
2023/10/25 04:41:31;;;;;;;5.33;2.70;;;10.20;99.90;;;;;;4987727;28;20652;-64
2023/10/25 04:43:57;;;;;;;2.80;2.60;;;10.20;99.90;;;;;;4986200;28;20207;-65
2023/10/25 04:46:23;;;;;;;3.00;2.53;;;10.20;99.90;;;;;;4987203;28;21048;-66
2023/10/25 04:48:48;;;;;;;3.60;2.80;;;10.30;99.90;;;;;;4986565;28;20755;-63
2023/10/25 04:51:14;;;;;;;8.50;4.60;;;10.30;99.90;;;;;;4988191;28;20211;-64
2023/10/25 04:53:40;;;;;;;4.37;3.10;;;10.30;99.90;;;;;;4988211;28;20202;-67
2023/10/25 04:56:07;;;;;;;4.77;3.43;;;10.30;99.90;;;;;;4985909;28;20191;-63
2023/10/25 04:58:33;;;;;;;5.07;4.00;;;10.30;99.90;;;;;;4986515;28;20446;-66
2023/10/25 05:00:59;;;;;;;4.73;3.20;;;10.30;99.90;;;;;;4986386;28;20523;-62
2023/10/25 05:03:24;;;;;;;5.00;3.00;;;10.30;99.90;;;;;;4984512;28;20434;-64
2023/10/25 05:05:50;;;;;;;4.20;3.40;;;10.30;99.90;;;;;;4985417;28;20258;-65
2023/10/25 05:08:16;;;;;;;4.03;3.70;;;10.30;99.90;;;;;;4985937;28;20218;-65
2023/10/25 05:10:43;;;;;;;4.77;3.70;;;10.20;99.90;;;;;;4986521;28;20194;-66
2023/10/25 05:13:08;;;;;;;9.63;3.80;;;10.30;99.90;;;;;;4986132;28;20183;-67
2023/10/25 05:15:35;;;;;;;4.70;3.93;;;10.20;99.90;;;;;;4985282;28;20438;-65
2023/10/25 05:18:01;;;;;;;4.47;3.37;;;10.20;99.90;;;;;;4987801;28;20936;-64
2023/10/25 05:20:27;;;;;;;5.10;3.80;;;10.20;99.90;;;;;;4987636;28;20437;-64
2023/10/25 05:22:56;;;;;;;4.80;3.87;;;10.30;99.90;;;;;;4978850;28;20198;-67
2023/10/25 05:25:22;;;;;;;5.27;3.50;;;10.30;99.90;;;;;;4988232;28;20466;-64
2023/10/25 05:27:48;;;;;;;5.93;3.70;;;10.30;99.90;;;;;;4987333;28;20787;-66
2023/10/25 05:30:15;;;;;;;7.60;3.60;;;10.30;99.90;;;;;;4988948;28;20434;-64
2023/10/25 05:32:47;;;;;;;10.30;4.13;;;10.20;99.90;;;;;;4987936;28;20517;-64
2023/10/25 05:35:14;;;;;;;3.87;3.47;;;10.20;99.90;;;;;;4987915;28;20439;-65
2023/10/25 05:37:40;;;;;;;8.87;3.50;;;10.20;99.90;;;;;;4988031;28;20544;-66
2023/10/25 05:40:06;;;;;;;6.30;3.90;;;10.20;99.90;;;;;;4988580;28;20491;-63
2023/10/25 05:42:44;;;;;;;6.00;4.00;;;10.20;99.90;;;;;;4986904;28;20442;-65
2023/10/25 05:45:10;;;;;;;6.00;3.67;;;10.20;99.90;;;;;;4984090;28;21119;-65
2023/10/25 05:47:36;;;;;;;4.57;4.10;;;10.20;99.90;;;;;;4987196;28;20624;-64
2023/10/25 05:50:02;;;;;;;6.57;4.30;;;10.20;99.90;;;;;;4977999;28;20202;-65
2023/10/25 05:52:28;;;;;;;8.13;3.80;;;10.20;99.90;;;;;;5002250;28;20943;-64
2023/10/25 05:54:54;;;;;;;4.63;3.67;;;10.20;99.90;;;;;;4990738;28;20430;-65
2023/10/25 05:57:20;;;;;;;4.00;3.57;;;10.20;99.90;;;;;;4991258;28;20568;-64
2023/10/25 05:59:46;;;;;;;4.10;3.70;;;10.30;99.90;;;;;;4991170;28;21213;-69
2023/10/25 06:02:14;;;;;;;4.07;3.63;;;10.30;99.90;;;;;;4988455;28;20438;-65
2023/10/25 06:04:41;;;;;;;4.83;3.97;;;10.30;99.90;;;;;;4985678;28;20183;-65
2023/10/25 06:07:09;;;;;;;3.97;3.37;;;10.20;99.90;;;;;;4986362;28;20474;-65
2023/10/25 06:09:39;;;;;;;4.53;3.80;;;10.30;99.90;;;;;;4987250;28;20445;-67
2023/10/25 06:12:06;;;;;;;4.17;3.50;;;10.30;99.90;;;;;;4987408;28;20789;-64
2023/10/25 06:14:32;;;;;;;5.93;4.10;;;10.30;99.90;;;;;;4985809;28;20533;-65
2023/10/25 06:16:59;;;;;;;4.87;3.80;;;10.30;99.90;;;;;;4989560;28;20442;-63
2023/10/25 06:19:25;;;;;;;6.00;4.67;;;10.30;99.90;;;;;;4990108;28;20192;-64
2023/10/25 06:21:51;;;;;;;4.20;3.80;;;10.30;99.90;;;;;;4990603;28;21049;-68
2023/10/25 06:24:17;;;;;;;5.50;4.33;;;10.30;99.90;;;;;;4989849;28;20465;-65
2023/10/25 06:26:43;;;;;;;6.73;4.90;;;10.30;99.90;;;;;;5004705;28;20572;-66
2023/10/25 06:29:08;;;;;;;4.03;3.57;;;10.30;99.90;;;;;;4989898;28;20226;-66
2023/10/25 06:31:34;;;;;;;8.90;4.20;;;10.30;99.90;;;;;;4987960;28;20190;-66
2023/10/25 06:34:00;;;;;;;4.80;4.23;;;10.30;99.90;;;;;;4987849;28;21178;-64
2023/10/25 06:36:26;;;;;;;4.90;4.07;;;10.30;99.90;;;;;;4990196;28;20188;-63
2023/10/25 06:38:52;;;;;;;4.37;3.97;;;10.30;99.90;;;;;;4989193;28;20202;-64
2023/10/25 06:41:22;;;;;;;6.90;4.33;;;10.30;99.90;;;;;;4989453;28;20437;-66
2023/10/25 06:43:48;;;;;;;9.27;4.57;;;10.30;99.90;;;;;;4988239;28;20451;-64
2023/10/25 06:46:14;;;;;;;5.40;4.30;;;10.40;99.90;;;;;;4988890;28;20549;-65
2023/10/25 06:48:41;;;;;;;5.17;4.67;;;10.40;99.90;;;;;;4989535;28;20433;-64
2023/10/25 06:51:08;;;;;;;4.37;3.97;;;10.40;99.90;;;;;;4989377;28;20969;-64
2023/10/25 06:53:36;;;;;;;4.70;3.70;;;10.40;99.90;;;;;;4988743;28;20980;-63
2023/10/25 06:56:03;;;;;;;5.57;4.20;;;10.40;99.90;;;;;;4989009;28;20439;-66
2023/10/25 06:58:29;;;;;;;4.40;4.00;;;10.40;99.90;;;;;;4989790;28;20468;-65
2023/10/25 07:00:58;;;;;;;5.37;3.90;;;10.50;99.90;;;;;;4990958;28;20557;-64
2023/10/25 07:03:34;;;;;;;5.03;3.77;;;10.50;99.90;;;;;;4989224;28;20823;-63
2023/10/25 07:06:02;;;;;;;12.77;3.50;;;10.50;99.90;;;;;;4990251;28;20471;-64
2023/10/25 07:08:29;;;;;;;7.37;2.80;;;10.60;99.90;;;;;;4990357;28;20443;-63
2023/10/25 07:10:55;;;;;;;4.43;2.93;;;10.60;99.90;;;;;;4989563;28;20470;-65
2023/10/25 07:13:23;;;;;;;7.90;2.93;;;10.60;99.90;;;;;;4988438;28;20565;-65
2023/10/25 07:15:50;;;;;;;3.10;2.70;;;10.60;99.90;;;;;;4989138;28;20430;-66
2023/10/25 07:18:15;;;;;;;5.37;2.60;;;10.70;99.90;;;;;;4990900;28;20427;-66
2023/10/25 07:20:41;;;;;;;3.67;2.33;;;10.80;99.90;;;;;;4991350;28;20422;-64
2023/10/25 07:23:08;;;;;;;4.37;3.40;;;10.80;99.90;;;;;;5006917;28;20202;-64
2023/10/25 07:25:34;;;;;;;3.90;2.60;;;10.90;99.90;;;;;;4990551;28;20203;-63
2023/10/25 07:28:00;;;;;;;3.23;2.47;;;10.90;99.90;;;;;;4989980;28;20430;-67
2023/10/25 07:30:26;;;;;;;4.40;2.10;;;10.90;99.90;;;;;;4990702;28;20493;-67
2023/10/25 07:32:51;;;;;;;3.93;2.23;;;11.00;99.90;;;;;;4989050;28;20636;-65
2023/10/25 07:35:17;;;;;;;6.10;2.10;;;11.10;99.90;;;;;;4990056;28;20195;-64
2023/10/25 07:37:43;;;;;;;7.80;2.17;;;11.30;99.90;;;;;;4990047;28;20199;-64
2023/10/25 07:40:09;;;;;;;2.70;1.73;;;11.40;99.90;;;;;;4989565;28;20266;-63
2023/10/25 07:42:35;;;;;;;6.00;2.20;;;11.50;99.90;;;;;;4989650;28;20208;-63
2023/10/25 07:45:00;;;;;;;2.67;2.03;;;11.60;99.90;;;;;;4988803;28;20596;-64
2023/10/25 07:47:26;;;;;;;2.80;1.97;;;11.70;99.90;;;;;;4972937;28;20189;-68
2023/10/25 07:49:52;;;;;;;4.60;2.10;;;11.70;99.90;;;;;;4989231;28;20198;-65
2023/10/25 07:52:17;;;;;;;3.80;1.70;;;11.70;99.90;;;;;;4989982;28;20176;-65
2023/10/25 07:54:43;;;;;;;1.90;1.40;;;11.70;99.90;;;;;;4979984;28;20176;-68
2023/10/25 07:57:09;;;;;;;2.20;1.43;;;11.60;99.90;;;;;;4989007;28;20183;-65
2023/10/25 07:59:36;;;;;;;2.47;1.60;;;11.60;99.90;;;;;;4990451;28;20435;-66
2023/10/25 08:02:02;;;;;;;5.20;1.50;;;11.60;99.90;;;;;;4988871;28;20186;-64
2023/10/25 08:04:28;;;;;;;3.37;1.90;;;11.60;99.90;;;;;;4990028;28;20530;-67
2023/10/25 08:06:53;;;;;;;9.87;1.73;;;11.60;99.90;;;;;;4979646;28;20476;-67
2023/10/25 08:09:19;;;;;;;2.43;1.60;;;11.60;99.90;;;;;;4989773;28;20193;-67
2023/10/25 08:11:45;;;;;;;2.50;1.40;;;11.60;99.90;;;;;;5004098;28;20668;-65
2023/10/25 08:14:11;;;;;;;2.17;1.47;;;11.60;99.90;;;;;;4986206;28;20426;-67
2023/10/25 08:16:39;;;;;;;1.70;1.10;;;11.60;99.90;;;;;;4989517;28;20651;-68
2023/10/25 08:19:08;;;;;;;1.80;1.40;;;11.60;99.90;;;;;;4987861;28;20192;-64
2023/10/25 08:21:37;;;;;;;3.13;1.30;;;11.60;99.90;;;;;;4988574;28;20847;-67
2023/10/25 08:24:07;;;;;;;2.80;1.70;;;11.60;99.90;;;;;;4987928;28;20438;-64
2023/10/25 08:26:37;;;;;;;2.57;1.60;;;11.60;99.90;;;;;;4989056;28;20458;-66
2023/10/25 08:29:03;;;;;;;5.60;1.93;;;11.60;99.90;;;;;;4989285;28;20434;-66
2023/10/25 08:31:29;;;;;;;4.00;1.20;;;11.70;99.90;;;;;;4989356;28;20955;-67
2023/10/25 08:33:55;;;;;;;2.17;1.40;;;11.70;99.90;;;;;;4988078;28;20431;-66
2023/10/25 08:36:20;;;;;;;2.40;1.53;;;11.70;99.90;;;;;;4979794;28;20175;-66
2023/10/25 08:38:46;;;;;;;1.93;1.10;;;11.70;99.90;;;;;;4990107;28;20198;-65
2023/10/25 08:41:12;;;;;;;2.47;1.60;;;11.70;99.90;;;;;;4988994;28;20187;-64
2023/10/25 08:43:39;;;;;;;3.50;1.63;;;11.70;99.90;;;;;;4990097;28;20192;-67
2023/10/25 08:46:05;;;;;;;8.57;1.43;;;11.80;99.90;;;;;;4990578;28;20206;-65
2023/10/25 08:48:32;;;;;;;6.70;2.40;;;11.70;99.90;;;;;;4990547;28;20426;-64
2023/10/25 08:51:01;;;;;;;2.40;1.20;;;11.70;99.90;;;;;;4988789;28;21009;-65
2023/10/25 08:53:29;;;;;;;5.47;1.57;;;11.80;99.90;;;;;;4988137;28;20435;-64
2023/10/25 08:55:56;;;;;;;2.73;1.10;;;11.80;99.90;;;;;;4988930;28;21003;-66
2023/10/25 08:58:26;;;;;;;2.03;1.23;;;11.90;99.90;;;;;;4988521;28;20429;-67
2023/10/25 09:00:55;;;;;;;4.50;1.47;;;11.90;99.90;;;;;;4990484;28;20457;-64
2023/10/25 09:03:33;;;;;;;4.13;1.40;;;11.90;99.90;;;;;;4985399;28;20437;-65
2023/10/25 09:05:59;;;;;;;3.20;1.43;;;11.90;99.90;;;;;;4987884;28;20525;-65
2023/10/25 09:08:25;;;;;;;2.43;1.10;;;11.90;99.90;;;;;;4989439;28;20437;-65
2023/10/25 09:11:00;;;;;;;2.00;1.00;;;11.90;99.90;;;;;;4987997;28;20425;-67
2023/10/25 09:13:26;;;;;;;4.13;1.67;;;12.00;99.90;;;;;;4986105;28;20439;-66
2023/10/25 09:15:51;;;;;;;5.33;1.50;;;12.00;99.90;;;;;;4988724;28;20418;-68
2023/10/25 09:18:17;;;;;;;4.40;1.30;;;12.00;99.90;;;;;;4988603;28;20194;-67
2023/10/25 09:20:49;;;;;;;3.20;1.20;;;12.00;99.90;;;;;;4988787;28;20191;-64
2023/10/25 09:23:16;;;;;;;3.40;0.93;;;12.00;99.90;;;;;;4987077;28;20430;-68
2023/10/25 09:25:43;;;;;;;3.37;1.10;;;12.00;99.90;;;;;;4989242;28;20462;-64
2023/10/25 09:28:27;;;;;;;2.50;0.80;;;12.10;99.90;;;;;;4987723;28;20434;-66
2023/10/25 09:30:58;;;;;;;2.33;1.10;;;12.10;99.90;;;;;;4988785;28;20430;-65
2023/10/25 09:33:24;;;;;;;2.00;1.17;;;12.10;99.90;;;;;;4987354;28;20449;-65
2023/10/25 09:35:51;;;;;;;1.20;0.83;;;12.10;99.90;;;;;;4988206;28;20431;-66
2023/10/25 09:38:17;;;;;;;1.33;0.90;;;12.10;99.90;;;;;;4988212;28;20442;-65
2023/10/25 09:40:45;;;;;;;4.13;1.20;;;12.10;99.90;;;;;;4988389;28;20513;-64
2023/10/25 09:43:17;;;;;;;1.37;1.20;;;12.10;99.90;;;;;;4987102;28;20898;-68
2023/10/25 09:45:56;;;;;;;1.67;1.23;;;12.20;99.90;;;;;;4987977;28;20482;-68
2023/10/25 09:48:23;;;;;;;2.67;1.20;;;12.20;99.90;;;;;;4991290;28;20433;-65
2023/10/25 09:51:15;;;;;;;3.50;1.33;;;12.20;99.90;;;;;;4992492;28;21088;-65
2023/10/25 09:54:05;;;;;;;3.00;1.27;;;12.10;99.90;;;;;;4992013;28;20437;-66
2023/10/25 09:56:33;;;;;;;4.37;1.40;;;12.20;99.90;;;;;;4990924;28;20516;-67
2023/10/25 09:59:00;;;;;;;3.53;1.47;;;12.20;99.90;;;;;;4992180;28;20489;-64
2023/10/25 10:01:26;;;;;;;3.37;1.43;;;12.20;99.90;;;;;;4991115;28;20529;-67
2023/10/25 10:03:54;;;;;;;2.30;1.27;;;12.20;99.90;;;;;;4990947;28;20495;-67
2023/10/25 10:06:29;;;;;;;2.97;1.63;;;12.20;99.90;;;;;;4990922;28;20208;-65
2023/10/25 10:09:21;;;;;;;3.40;1.37;;;12.20;99.90;;;;;;5007980;28;20787;-68
2023/10/25 10:11:56;;;;;;;2.00;1.50;;;12.20;99.90;;;;;;4984879;28;20431;-66
2023/10/25 10:14:38;;;;;;;2.50;1.47;;;12.20;99.90;;;;;;4990177;28;20478;-65
2023/10/25 10:17:13;;;;;;;3.23;1.50;;;12.20;99.90;;;;;;4991555;28;20449;-66
2023/10/25 10:19:42;;;;;;;1.53;1.00;;;12.20;99.90;;;;;;4992172;28;20426;-65
2023/10/25 10:22:09;;;;;;;2.90;1.67;;;12.20;99.90;;;;;;4990925;28;21164;-65
2023/10/25 10:24:48;;;;;;;4.70;1.17;;;12.20;99.90;;;;;;4990834;28;20514;-64
2023/10/25 10:27:25;;;;;;;1.50;1.30;;;12.20;99.90;;;;;;4991517;28;20513;-66
2023/10/25 10:29:51;;;;;;;2.70;1.50;;;12.20;99.90;;;;;;4991793;28;21293;-66
2023/10/25 10:32:17;;;;;;;3.80;1.13;;;12.20;99.90;;;;;;4991573;28;20525;-64
2023/10/25 10:34:57;;;;;;;5.10;1.63;;;12.10;99.90;;;;;;4990574;28;20739;-67
2023/10/25 10:37:29;;;;;;;1.93;1.40;;;12.10;99.90;;;;;;4991215;28;21255;-67
2023/10/25 10:39:58;;;;;;;2.27;1.43;;;12.10;99.90;;;;;;4991883;28;20434;-65
2023/10/25 10:42:33;;;;;;;4.40;1.27;;;12.20;99.90;;;;;;4990386;28;20794;-67
2023/10/25 10:45:01;;;;;;;2.00;1.20;;;12.10;99.90;;;;;;4990798;28;20573;-67
2023/10/25 10:47:50;;;;;;;3.90;1.50;;;12.20;99.90;;;;;;4990992;28;20474;-64
2023/10/25 10:50:18;;;;;;;3.03;1.50;;;12.20;99.90;;;;;;4991135;28;20458;-64
2023/10/25 10:52:46;;;;;;;2.53;1.50;;;12.20;99.90;;;;;;4991874;28;20536;-67
2023/10/25 10:55:16;;;;;;;2.73;1.53;;;12.20;99.90;;;;;;4991886;28;20439;-66
2023/10/25 10:57:43;;;;;;;1.70;1.17;;;12.20;99.90;;;;;;4990214;28;21265;-65
2023/10/25 11:00:10;;;;;;;2.40;1.60;;;12.20;99.90;;;;;;4992369;28;20430;-64
2023/10/25 11:02:40;;;;;;;7.33;1.80;;;12.20;99.90;;;;;;4991455;28;20472;-66
2023/10/25 11:05:07;;;;;;;1.87;1.53;;;12.20;99.90;;;;;;4991284;28;20433;-65
2023/10/25 11:07:33;;;;;;;4.40;1.73;;;12.20;99.90;;;;;;4992126;28;20446;-63
2023/10/25 11:09:59;;;;;;;4.00;1.40;;;12.20;99.90;;;;;;4992212;28;20453;-64
2023/10/25 11:12:26;;;;;;;3.97;1.50;;;12.20;99.90;;;;;;4990884;28;20431;-64
2023/10/25 11:14:52;;;;;;;3.73;1.50;;;12.20;99.90;;;;;;4988998;28;20841;-66
2023/10/25 11:17:18;;;;;;;3.63;1.47;;;12.30;99.90;;;;;;4991545;28;20465;-64
2023/10/25 11:19:46;;;;;;;1.80;1.47;;;12.30;99.90;;;;;;4991533;28;20545;-64
2023/10/25 11:22:12;;;;;;;3.43;1.40;;;12.40;99.90;;;;;;4997051;28;20458;-64
2023/10/25 11:24:38;;;;;;;4.93;2.57;;;12.30;99.90;;;;;;4990630;28;20799;-65
2023/10/25 11:27:04;;;;;;;3.77;1.60;;;12.30;99.90;;;;;;4991508;28;20469;-66
2023/10/25 11:29:39;;;;;;;2.40;1.33;;;12.30;99.90;;;;;;4991426;28;20435;-63
2023/10/25 11:32:12;;;;;;;2.83;1.70;;;12.20;99.90;;;;;;4991921;28;20429;-65
2023/10/25 11:34:45;;;;;;;2.33;1.70;;;12.20;99.90;;;;;;4991497;28;20427;-66
2023/10/25 11:37:12;;;;;;;2.43;1.53;;;12.20;99.90;;;;;;4994183;28;21245;-66
2023/10/25 11:40:02;;;;;;;1.77;1.30;;;12.20;99.90;;;;;;4991849;28;20426;-64
2023/10/25 11:42:37;;;;;;;2.90;1.20;;;12.20;99.90;;;;;;4990589;28;20426;-64
2023/10/25 11:45:04;;;;;;;1.50;1.40;;;12.20;99.90;;;;;;4990971;28;20446;-64
2023/10/25 11:47:32;;;;;;;1.73;1.30;;;12.20;99.90;;;;;;4987895;28;20581;-66
2023/10/25 11:50:03;;;;;;;2.00;1.63;;;12.20;99.90;;;;;;4990491;28;20995;-67
2023/10/25 11:52:30;;;;;;;3.47;1.90;;;12.20;99.90;;;;;;4990572;28;20445;-66
2023/10/25 11:54:57;;;;;;;2.70;1.50;;;12.20;99.90;;;;;;4990004;28;20422;-67
2023/10/25 11:57:42;;;;;;;2.70;1.60;;;12.10;99.90;;;;;;4989939;28;20844;-67
2023/10/25 12:00:09;;;;;;;1.40;1.30;;;12.10;99.90;;;;;;4990410;28;21209;-65
2023/10/25 12:02:34;;;;;;;2.23;1.67;;;12.10;99.90;;;;;;4989945;28;20423;-65
2023/10/25 12:05:01;;;;;;;4.17;2.10;;;12.10;99.90;;;;;;4987595;28;20435;-65
2023/10/25 12:07:27;;;;;;;2.87;1.80;;;12.00;99.90;;;;;;4989936;28;20590;-64
2023/10/25 12:09:53;;;;;;;4.13;2.00;;;12.00;99.90;;;;;;4989163;28;20444;-64
2023/10/25 12:12:20;;;;;;;2.30;1.50;;;12.00;99.90;;;;;;4989845;28;20519;-64
2023/10/25 12:14:46;;;;;;;2.80;1.90;;;12.00;99.90;;;;;;4987103;28;20433;-67
2023/10/25 12:17:11;;;;;;;3.20;1.90;;;12.00;99.90;;;;;;4990293;28;20430;-67
2023/10/25 12:19:39;;;;;;;2.87;1.93;;;12.00;99.90;;;;;;4988730;28;20210;-64
2023/10/25 12:22:07;;;;;;;2.63;2.00;;;12.00;99.90;;;;;;4989669;28;20198;-63
2023/10/25 12:24:34;;;;;;;2.87;2.37;;;12.00;99.90;;;;;;4988475;28;20862;-66
2023/10/25 12:27:01;;;;;;;2.17;1.80;;;12.00;99.90;;;;;;4988292;28;20589;-68
2023/10/25 12:29:27;;;;;;;2.57;1.90;;;12.00;99.90;;;;;;4990363;28;20488;-63
2023/10/25 12:31:53;;;;;;;2.13;1.87;;;12.00;99.90;;;;;;4988687;28;20437;-65
2023/10/25 12:34:18;;;;;;;2.50;1.90;;;11.90;99.90;;;;;;4988916;28;20429;-65
2023/10/25 12:36:44;;;;;;;2.83;2.00;;;12.00;99.90;;;;;;4989423;28;20191;-66
2023/10/25 12:39:10;;;;;;;3.73;1.80;;;11.90;99.90;;;;;;4988502;28;20187;-66
2023/10/25 12:41:35;;;;;;;2.77;2.07;;;11.90;99.90;;;;;;4989697;28;20191;-66
2023/10/25 12:44:08;;;;;;;2.60;2.10;;;11.90;99.90;;;;;;4988170;28;20213;-65
2023/10/25 12:46:36;;;;;;;2.90;2.00;;;11.90;99.90;;;;;;4989155;28;20215;-65
2023/10/25 12:49:03;;;;;;;2.10;1.90;;;11.90;99.90;;;;;;4989373;28;21115;-67